createdAt,value
2022-10-09T00:01:24.682Z,95352.69
2022-10-09T00:03:52.195Z,95359.03
2022-10-09T00:06:23.171Z,95354.25
2022-10-09T00:08:50.253Z,95359.03
2022-10-09T00:11:27.114Z,95364.59
2022-10-09T00:13:54.776Z,95355.06
2022-10-09T00:16:22.240Z,95356.03
2022-10-09T00:18:49.209Z,95352.47
2022-10-09T00:21:21.131Z,95355.25
2022-10-09T00:23:47.982Z,95349.47
2022-10-09T00:26:14.710Z,95347.88
2022-10-09T00:28:41.553Z,95340.25
2022-10-09T00:31:09.286Z,95333.88
2022-10-09T00:33:36.311Z,95338.28
2022-10-09T00:36:07.170Z,95341.47
2022-10-09T00:38:34.097Z,95335.50
2022-10-09T00:41:01.212Z,95338.63
2022-10-09T00:43:57.275Z,95329.06
2022-10-09T00:46:23.794Z,95334.56
2022-10-09T00:48:54.108Z,95329.00
2022-10-09T00:51:20.756Z,95329.47
2022-10-09T00:53:47.455Z,95319.91
2022-10-09T00:56:14.073Z,95321.06
2022-10-09T00:58:40.623Z,95319.00
2022-10-09T01:01:07.249Z,95320.03
2022-10-09T01:03:33.934Z,95325.75
2022-10-09T01:06:12.516Z,95318.59
2022-10-09T01:08:51.028Z,95326.59
2022-10-09T01:11:23.369Z,95324.38
2022-10-09T01:13:49.844Z,95316.97
2022-10-09T01:16:23.668Z,95327.28
2022-10-09T01:19:09.131Z,95324.09
2022-10-09T01:21:41.528Z,95325.69
2022-10-09T01:24:11.161Z,95320.84
2022-10-09T01:26:49.630Z,95330.53
2022-10-09T01:29:18.927Z,95330.34
2022-10-09T01:31:47.103Z,95325.34
2022-10-09T01:34:14.881Z,95327.84
2022-10-09T01:36:43.273Z,95324.66
2022-10-09T01:39:12.249Z,95331.03
2022-10-09T01:41:38.919Z,95325.03
2022-10-09T01:44:15.315Z,95330.81
2022-10-09T01:46:41.898Z,95322.59
2022-10-09T01:49:11.286Z,95323.97
2022-10-09T01:51:58.109Z,95323.19
2022-10-09T01:54:47.695Z,95315.97
2022-10-09T01:57:18.040Z,95321.53
2022-10-09T01:59:46.592Z,95330.28
2022-10-09T02:02:13.426Z,95325.22
2022-10-09T02:04:42.238Z,95330.91
2022-10-09T02:07:09.339Z,95334.03
2022-10-09T02:09:37.361Z,95330.13
2022-10-09T02:12:06.701Z,95332.06
2022-10-09T02:14:34.440Z,95336.75
2022-10-09T02:17:14.133Z,95333.63
2022-10-09T02:19:46.077Z,95342.84
2022-10-09T02:22:15.327Z,95345.66
2022-10-09T02:24:42.398Z,95342.59
2022-10-09T02:27:10.773Z,95346.78
2022-10-09T02:29:41.452Z,95352.22
2022-10-09T02:32:08.277Z,95351.34
2022-10-09T02:34:34.908Z,95351.75
2022-10-09T02:37:01.646Z,95352.53
2022-10-09T02:39:28.222Z,95350.47
2022-10-09T02:41:54.830Z,95354.91
2022-10-09T02:44:21.496Z,95356.63
2022-10-09T02:46:48.123Z,95355.63
2022-10-09T02:49:14.736Z,95352.44
2022-10-09T02:51:41.372Z,95354.91
2022-10-09T02:54:08.023Z,95358.13
2022-10-09T02:56:38.798Z,95356.13
2022-10-09T02:59:06.145Z,95355.44
2022-10-09T03:01:32.789Z,95356.78
2022-10-09T03:03:59.460Z,95357.97
2022-10-09T03:06:27.367Z,95358.63
2022-10-09T03:08:54.414Z,95364.06
2022-10-09T03:11:22.383Z,95359.25
2022-10-09T03:13:49.352Z,95360.88
2022-10-09T03:16:20.539Z,95363.63
2022-10-09T03:18:48.164Z,95365.28
2022-10-09T03:21:16.958Z,95369.38
2022-10-09T03:23:43.699Z,95372.81
2022-10-09T03:26:11.547Z,95367.66
2022-10-09T03:28:39.229Z,95371.69
2022-10-09T03:31:06.284Z,95380.84
2022-10-09T03:33:33.190Z,95371.13
2022-10-09T03:35:59.793Z,95382.75
2022-10-09T03:38:26.402Z,95380.31
2022-10-09T03:40:53.023Z,95377.91
2022-10-09T03:43:19.990Z,95388.78
2022-10-09T03:45:46.808Z,95384.56
2022-10-09T03:48:13.511Z,95384.25
2022-10-09T03:50:40.856Z,95386.09
2022-10-09T03:53:08.424Z,95382.09
2022-10-09T03:55:35.139Z,95339.69
2022-10-09T03:58:02.121Z,95378.84
2022-10-09T04:00:28.709Z,95381.66
2022-10-09T04:02:55.520Z,95380.81
2022-10-09T04:05:22.483Z,95381.78
2022-10-09T04:07:49.193Z,95389.78
2022-10-09T04:10:16.027Z,95383.88
2022-10-09T04:12:42.653Z,95390.63
2022-10-09T04:15:09.429Z,95384.59
2022-10-09T04:17:36.091Z,95388.56
2022-10-09T04:20:02.741Z,95382.75
2022-10-09T04:22:29.368Z,95383.75
2022-10-09T04:24:55.934Z,95390.03
2022-10-09T04:27:22.580Z,95389.81
2022-10-09T04:29:49.153Z,95392.59
2022-10-09T04:32:15.728Z,95392.31
2022-10-09T04:34:42.309Z,95394.91
2022-10-09T04:37:08.877Z,95393.69
2022-10-09T04:39:35.471Z,95384.84
2022-10-09T04:42:02.055Z,95390.84
2022-10-09T04:44:28.672Z,95390.41
2022-10-09T04:46:55.223Z,95400.41
2022-10-09T04:49:21.824Z,95399.72
2022-10-09T04:51:48.420Z,95400.06
2022-10-09T04:54:15.032Z,95394.56
2022-10-09T04:56:41.587Z,95394.16
2022-10-09T04:59:08.180Z,95394.44
2022-10-09T05:01:38.239Z,95365.31
2022-10-09T05:04:05.354Z,95397.41
2022-10-09T05:06:32.011Z,95409.34
2022-10-09T05:08:58.684Z,95407.72
2022-10-09T05:11:25.726Z,95417.69
2022-10-09T05:13:53.736Z,95415.84
2022-10-09T05:16:21.703Z,95421.47
2022-10-09T05:18:49.738Z,95412.25
2022-10-09T05:21:16.718Z,95415.03
2022-10-09T05:23:43.306Z,95423.94
2022-10-09T05:26:14.198Z,95421.19
2022-10-09T05:28:40.939Z,95423.22
2022-10-09T05:31:08.125Z,95424.09
2022-10-09T05:33:35.075Z,95426.94
2022-10-09T05:36:02.932Z,95425.81
2022-10-09T05:38:29.556Z,95431.78
2022-10-09T05:40:56.248Z,95427.44
2022-10-09T05:43:24.152Z,95425.13
2022-10-09T05:45:51.244Z,95436.13
2022-10-09T05:48:17.997Z,95438.38
2022-10-09T05:50:44.641Z,95440.84
2022-10-09T05:53:11.796Z,95440.25
2022-10-09T05:55:38.307Z,95450.41
2022-10-09T05:58:05.049Z,95446.47
2022-10-09T06:00:31.662Z,95450.44
2022-10-09T06:02:58.333Z,95449.25
2022-10-09T06:05:25.855Z,95460.41
2022-10-09T06:07:52.511Z,95462.41
2022-10-09T06:10:19.057Z,95471.78
2022-10-09T06:12:45.697Z,95477.88
2022-10-09T06:15:12.319Z,95477.03
2022-10-09T06:17:38.972Z,95479.41
2022-10-09T06:20:05.777Z,95476.56
2022-10-09T06:22:32.371Z,95479.78
2022-10-09T06:24:58.942Z,95476.94
2022-10-09T06:27:25.500Z,95480.09
2022-10-09T06:29:53.357Z,95481.19
2022-10-09T06:32:19.954Z,95487.63
2022-10-09T06:34:46.497Z,95485.19
2022-10-09T06:37:13.127Z,95490.38
2022-10-09T06:39:39.695Z,95487.91
2022-10-09T06:42:06.274Z,95487.19
2022-10-09T06:44:49.909Z,95493.84
2022-10-09T06:47:16.482Z,95492.72
2022-10-09T06:49:43.084Z,95498.72
2022-10-09T06:52:09.616Z,95500.44
2022-10-09T06:54:36.208Z,95495.84
2022-10-09T06:57:04.712Z,95509.38
2022-10-09T06:59:31.295Z,95502.94
2022-10-09T07:01:58.207Z,95503.69
2022-10-09T07:04:24.935Z,95500.53
2022-10-09T07:06:51.576Z,95462.69
2022-10-09T07:09:18.453Z,95506.44
2022-10-09T07:11:46.116Z,95511.09
2022-10-09T07:14:13.882Z,95508.75
2022-10-09T07:16:41.680Z,95504.56
2022-10-09T07:19:11.147Z,95508.34
2022-10-09T07:21:39.374Z,95512.25
2022-10-09T07:24:06.615Z,95503.25
2022-10-09T07:26:34.795Z,95519.25
2022-10-09T07:29:01.497Z,95518.88
2022-10-09T07:31:28.310Z,95521.56
2022-10-09T07:33:56.578Z,95520.00
2022-10-09T07:36:23.536Z,95523.19
2022-10-09T07:38:51.638Z,95521.84
2022-10-09T07:41:18.626Z,95513.06
2022-10-09T07:43:45.802Z,95515.28
2022-10-09T07:46:17.287Z,95524.44
2022-10-09T07:48:44.315Z,95519.91
2022-10-09T07:51:16.279Z,95526.19
2022-10-09T07:53:42.952Z,95526.28
2022-10-09T07:56:19.666Z,95529.88
2022-10-09T07:58:53.596Z,95528.19
2022-10-09T08:01:20.826Z,95525.81
2022-10-09T08:03:48.011Z,95529.69
2022-10-09T08:06:15.012Z,95524.56
2022-10-09T08:08:41.700Z,95526.34
2022-10-09T08:11:09.920Z,95525.47
2022-10-09T08:13:36.528Z,95529.88
2022-10-09T08:16:03.568Z,95519.56
2022-10-09T08:18:30.263Z,95526.88
2022-10-09T08:21:00.693Z,95525.94
2022-10-09T08:23:27.698Z,95527.72
2022-10-09T08:25:54.738Z,95529.59
2022-10-09T08:28:21.491Z,95518.50
2022-10-09T08:30:48.243Z,95515.94
2022-10-09T08:33:15.059Z,95518.94
2022-10-09T08:35:41.707Z,95520.97
2022-10-09T08:38:08.298Z,95516.97
2022-10-09T08:40:45.259Z,95516.03
2022-10-09T08:43:15.680Z,95521.75
2022-10-09T08:45:43.729Z,95515.19
2022-10-09T08:48:18.504Z,95513.75
2022-10-09T08:50:48.616Z,95507.91
2022-10-09T08:53:33.812Z,95507.59
2022-10-09T08:56:01.910Z,95501.00
2022-10-09T08:58:34.514Z,95504.50
2022-10-09T09:01:01.630Z,95505.44
2022-10-09T09:03:43.545Z,95497.88
2022-10-09T09:06:18.849Z,95494.72
2022-10-09T09:08:45.550Z,95490.75
2022-10-09T09:11:21.958Z,95489.13
2022-10-09T09:13:48.607Z,95486.72
2022-10-09T09:16:18.283Z,95480.84
2022-10-09T09:19:00.998Z,95481.28
2022-10-09T09:21:36.900Z,95482.06
2022-10-09T09:24:05.376Z,95485.00
2022-10-09T09:26:31.989Z,95485.00
2022-10-09T09:29:01.945Z,95488.41
2022-10-09T09:31:31.426Z,95485.69
2022-10-09T09:34:01.867Z,95475.19
2022-10-09T09:36:31.510Z,95476.88
2022-10-09T09:41:45.621Z,95480.63
2022-10-09T09:44:13.409Z,95487.47
2022-10-09T09:46:40.351Z,95486.25
2022-10-09T09:49:17.304Z,95491.69
2022-10-09T09:51:44.178Z,95490.88
2022-10-09T09:54:20.272Z,95491.13
2022-10-09T09:59:39.187Z,95482.69
2022-10-09T10:02:05.804Z,95491.16
2022-10-09T10:04:32.679Z,95491.63
2022-10-09T10:06:59.360Z,95490.38
2022-10-09T10:09:27.115Z,95494.47
2022-10-09T10:11:56.923Z,95485.72
2022-10-09T10:14:23.732Z,95486.50
2022-10-09T10:16:51.401Z,95492.50
2022-10-09T10:19:20.490Z,95483.75
2022-10-09T10:21:48.717Z,95485.28
2022-10-09T10:24:20.263Z,95489.19
2022-10-09T10:26:50.180Z,95489.78
2022-10-09T10:29:18.762Z,95486.69
2022-10-09T10:31:48.540Z,95483.66
2022-10-09T10:34:22.047Z,95494.44
2022-10-09T10:36:52.261Z,95483.75
2022-10-09T10:39:26.927Z,95473.06
2022-10-09T10:41:57.393Z,95473.63
2022-10-09T10:44:37.572Z,95478.47
2022-10-09T10:47:06.640Z,95476.41
2022-10-09T10:49:34.092Z,95468.78
2022-10-09T10:52:04.095Z,95471.38
2022-10-09T10:54:37.699Z,95463.19
2022-10-09T10:57:09.203Z,95463.22
2022-10-09T10:59:36.189Z,95457.41
2022-10-09T11:02:21.449Z,95454.59
2022-10-09T11:05:06.249Z,95449.41
2022-10-09T11:07:38.603Z,95404.69
2022-10-09T11:10:28.090Z,95439.03
2022-10-09T11:12:54.703Z,95442.63
2022-10-09T11:15:24.109Z,95434.03
2022-10-09T11:17:50.748Z,95431.44
2022-10-09T11:20:17.299Z,95428.50
2022-10-09T11:23:02.465Z,95426.31
2022-10-09T11:25:31.011Z,95423.38
2022-10-09T11:28:07.471Z,95422.75
2022-10-09T11:30:39.625Z,95420.59
2022-10-09T11:33:16.914Z,95417.22
2022-10-09T11:36:12.798Z,95417.78
2022-10-09T11:38:42.464Z,95418.28
2022-10-09T11:41:09.318Z,95413.41
2022-10-09T11:43:43.181Z,95404.59
2022-10-09T11:46:20.441Z,95401.88
2022-10-09T11:48:59.534Z,95401.09
2022-10-09T11:51:44.787Z,95403.66
2022-10-09T11:54:15.840Z,95400.00
2022-10-09T11:56:52.673Z,95397.38
2022-10-09T11:59:25.787Z,95388.19
2022-10-09T12:01:52.700Z,95390.81
2022-10-09T12:04:43.596Z,95387.81
2022-10-09T12:07:13.187Z,95391.41
2022-10-09T12:09:39.797Z,95388.97
2022-10-09T12:12:10.308Z,95381.88
2022-10-09T12:14:37.647Z,95385.88
2022-10-09T12:17:15.583Z,95394.81
2022-10-09T12:19:42.696Z,95385.88
2022-10-09T12:22:21.768Z,95386.63
2022-10-09T12:24:50.508Z,95370.47
2022-10-09T12:27:28.232Z,95376.84
2022-10-09T12:29:56.483Z,95384.34
2022-10-09T12:32:29.079Z,95375.00
2022-10-09T12:34:56.525Z,95370.94
2022-10-09T12:37:31.523Z,95370.63
2022-10-09T12:40:06.549Z,95372.66
2022-10-09T12:42:33.226Z,95376.78
2022-10-09T12:44:59.874Z,95378.59
2022-10-09T12:47:28.061Z,95379.97
2022-10-09T12:49:58.696Z,95375.44
2022-10-09T12:52:25.541Z,95372.47
2022-10-09T12:54:52.217Z,95371.34
2022-10-09T12:57:21.769Z,95379.66
2022-10-09T12:59:50.962Z,95375.31
2022-10-09T13:02:18.409Z,95368.28
2022-10-09T13:04:55.532Z,95373.34
2022-10-09T13:07:25.010Z,95374.09
2022-10-09T13:09:57.700Z,95376.69
2022-10-09T13:12:25.824Z,95377.34
2022-10-09T13:15:06.266Z,95373.72
2022-10-09T13:17:37.516Z,95380.50
2022-10-09T13:20:22.987Z,95369.31
2022-10-09T13:23:08.449Z,95373.91
2022-10-09T13:25:37.297Z,95362.09
2022-10-09T13:28:04.066Z,95367.16
2022-10-09T13:30:30.896Z,95365.75
2022-10-09T13:32:57.768Z,95365.50
2022-10-09T13:35:24.706Z,95370.75
2022-10-09T13:37:51.761Z,95362.47
2022-10-09T13:40:20.812Z,95358.75
2022-10-09T13:42:54.767Z,95366.03
2022-10-09T13:45:21.994Z,95369.16
2022-10-09T13:47:48.762Z,95370.63
2022-10-09T13:50:16.111Z,95378.06
2022-10-09T13:52:42.762Z,95377.84
2022-10-09T13:55:09.569Z,95382.94
2022-10-09T13:57:36.092Z,95373.16
2022-10-09T14:00:03.087Z,95388.94
2022-10-09T14:02:38.668Z,95375.53
2022-10-09T14:05:05.517Z,95388.28
2022-10-09T14:07:32.091Z,95383.09
2022-10-09T14:09:58.673Z,95382.81
2022-10-09T14:12:25.283Z,95384.06
2022-10-09T14:14:53.326Z,95382.94
2022-10-09T14:17:19.929Z,95381.31
2022-10-09T14:19:46.478Z,95390.00
2022-10-09T14:22:15.933Z,95388.69
2022-10-09T14:24:42.690Z,95380.22
2022-10-09T14:27:09.356Z,95377.78
2022-10-09T14:29:37.517Z,95382.84
2022-10-09T14:32:04.796Z,95387.63
2022-10-09T14:34:31.354Z,95383.03
2022-10-09T14:36:57.907Z,95385.41
2022-10-09T14:39:24.495Z,95389.50
2022-10-09T14:41:51.135Z,95391.84
2022-10-09T14:44:17.807Z,95389.28
2022-10-09T14:46:44.396Z,95390.25
2022-10-09T14:49:11.081Z,95393.88
2022-10-09T14:51:39.650Z,95390.03
2022-10-09T14:54:07.436Z,95398.06
2022-10-09T14:56:34.174Z,95390.22
2022-10-09T14:59:01.137Z,95397.47
2022-10-09T15:01:29.521Z,95390.44
2022-10-09T15:03:56.453Z,95396.34
2022-10-09T15:06:27.638Z,95393.81
2022-10-09T15:08:56.113Z,95404.66
2022-10-09T15:11:23.217Z,95408.38
2022-10-09T15:13:49.844Z,95401.28
2022-10-09T15:16:17.375Z,95406.91
2022-10-09T15:18:44.541Z,95411.78
2022-10-09T15:21:15.601Z,95409.72
2022-10-09T15:23:42.353Z,95415.63
2022-10-09T15:26:09.679Z,95416.13
2022-10-09T15:28:36.837Z,95417.50
2022-10-09T15:31:04.122Z,95409.03
2022-10-09T15:33:30.922Z,95418.97
2022-10-09T15:35:57.524Z,95403.97
2022-10-09T15:38:24.790Z,95416.63
2022-10-09T15:40:52.476Z,95412.31
2022-10-09T15:43:20.272Z,95387.84
2022-10-09T15:45:47.016Z,95419.28
2022-10-09T15:48:31.620Z,95417.88
2022-10-09T15:51:03.292Z,95421.63
2022-10-09T15:53:29.878Z,95416.19
2022-10-09T15:55:57.180Z,95420.28
2022-10-09T15:58:23.742Z,95419.38
2022-10-09T16:00:50.430Z,95429.75
2022-10-09T16:03:17.697Z,95435.16
2022-10-09T16:05:47.664Z,95434.94
2022-10-09T16:08:14.599Z,95427.19
2022-10-09T16:10:49.222Z,95425.69
2022-10-09T16:13:15.994Z,95426.25
2022-10-09T16:15:43.200Z,95434.19
2022-10-09T16:18:10.546Z,95440.53
2022-10-09T16:20:37.727Z,95432.63
2022-10-09T16:23:04.770Z,95436.88
2022-10-09T16:25:31.389Z,95434.22
2022-10-09T16:27:58.031Z,95437.38
2022-10-09T16:30:24.684Z,95441.03
2022-10-09T16:32:51.846Z,95439.38
2022-10-09T16:35:18.807Z,95443.53
2022-10-09T16:37:45.403Z,95442.38
2022-10-09T16:40:12.051Z,95447.06
2022-10-09T16:42:38.654Z,95458.63
2022-10-09T16:45:05.571Z,95450.63
2022-10-09T16:47:33.980Z,95460.44
2022-10-09T16:50:00.599Z,95465.63
2022-10-09T16:52:27.282Z,95471.94
2022-10-09T16:54:57.038Z,95477.69
2022-10-09T16:57:26.175Z,95483.38
2022-10-09T16:59:52.984Z,95483.47
2022-10-09T17:02:19.651Z,95490.16
2022-10-09T17:04:46.338Z,95486.41
2022-10-09T17:07:12.978Z,95483.72
2022-10-09T17:09:40.522Z,95482.69
2022-10-09T17:12:13.009Z,95485.69
2022-10-09T17:14:40.416Z,95492.81
2022-10-09T17:17:08.154Z,95492.81
2022-10-09T17:19:34.774Z,95492.31
2022-10-09T17:22:01.363Z,95497.88
2022-10-09T17:24:28.479Z,95501.22
2022-10-09T17:26:55.226Z,95505.94
2022-10-09T17:29:22.371Z,95507.84
2022-10-09T17:31:49.397Z,95507.84
2022-10-09T17:34:16.072Z,95514.84
2022-10-09T17:36:44.100Z,95512.84
2022-10-09T17:39:12.254Z,95517.81
2022-10-09T17:41:39.941Z,95517.84
2022-10-09T17:44:06.770Z,95515.88
2022-10-09T17:46:33.329Z,95524.44
2022-10-09T17:49:00.104Z,95527.38
2022-10-09T17:51:26.837Z,95530.03
2022-10-09T17:53:54.277Z,95527.56
2022-10-09T17:56:20.912Z,95531.59
2022-10-09T17:58:48.760Z,95524.72
2022-10-09T18:01:16.136Z,95522.97
2022-10-09T18:03:43.529Z,95522.97
2022-10-09T18:06:12.172Z,95529.47
2022-10-09T18:08:39.880Z,95532.66
2022-10-09T18:11:08.131Z,95538.06
2022-10-09T18:13:35.311Z,95540.28
2022-10-09T18:16:05.028Z,95543.75
2022-10-09T18:18:31.992Z,95542.34
2022-10-09T18:21:02.725Z,95541.81
2022-10-09T18:23:30.253Z,95543.56
2022-10-09T18:25:56.878Z,95535.91
2022-10-09T18:28:23.710Z,95539.25
2022-10-09T18:30:50.476Z,95532.69
2022-10-09T18:33:17.049Z,95510.63
2022-10-09T18:35:43.665Z,95550.16
2022-10-09T18:38:10.708Z,95547.75
2022-10-09T18:40:45.561Z,95554.84
2022-10-09T18:43:12.599Z,95555.56
2022-10-09T18:45:43.379Z,95558.06
2022-10-09T18:48:10.071Z,95556.84
2022-10-09T18:50:37.635Z,95565.25
2022-10-09T18:53:04.590Z,95568.13
2022-10-09T18:55:31.487Z,95532.78
2022-10-09T18:57:59.594Z,95562.41
2022-10-09T19:00:26.697Z,95573.00
2022-10-09T19:02:53.377Z,95572.41
2022-10-09T19:05:20.163Z,95577.31
2022-10-09T19:07:46.874Z,95575.25
2022-10-09T19:10:13.635Z,95583.16
2022-10-09T19:12:42.636Z,95576.69
2022-10-09T19:15:12.249Z,95585.09
2022-10-09T19:17:39.309Z,95588.91
2022-10-09T19:20:06.244Z,95581.59
2022-10-09T19:22:33.002Z,95588.31
2022-10-09T19:24:59.697Z,95589.09
2022-10-09T19:27:27.299Z,95591.38
2022-10-09T19:29:54.179Z,95598.06
2022-10-09T19:32:23.820Z,95597.34
2022-10-09T19:34:51.143Z,95596.28
2022-10-09T19:37:18.370Z,95598.41
2022-10-09T19:39:48.540Z,95605.69
2022-10-09T19:42:15.651Z,95616.13
2022-10-09T19:44:43.376Z,95607.19
2022-10-09T19:47:10.651Z,95623.09
2022-10-09T19:49:37.364Z,95613.53
2022-10-09T19:52:04.281Z,95617.63
2022-10-09T19:54:31.959Z,95616.84
2022-10-09T19:56:58.647Z,95621.28
2022-10-09T19:59:25.350Z,95613.25
2022-10-09T20:01:56.650Z,95621.66
2022-10-09T20:04:24.180Z,95620.63
2022-10-09T20:06:51.788Z,95620.56
2022-10-09T20:09:18.984Z,95618.59
2022-10-09T20:11:46.255Z,95629.50
2022-10-09T20:14:12.951Z,95619.75
2022-10-09T20:16:39.710Z,95620.34
2022-10-09T20:19:07.091Z,95625.00
2022-10-09T20:21:37.022Z,95633.25
2022-10-09T20:24:06.148Z,95632.53
2022-10-09T20:26:33.278Z,95638.47
2022-10-09T20:29:00.214Z,95643.25
2022-10-09T20:31:27.184Z,95645.69
2022-10-09T20:33:54.677Z,95644.97
2022-10-09T20:36:23.410Z,95635.81
2022-10-09T20:38:50.631Z,95637.13
2022-10-09T20:41:17.369Z,95640.69
2022-10-09T20:43:43.967Z,95640.38
2022-10-09T20:46:12.423Z,95632.78
2022-10-09T20:48:39.605Z,95634.84
2022-10-09T20:51:06.385Z,95639.31
2022-10-09T20:53:33.463Z,95639.56
2022-10-09T20:56:01.169Z,95652.63
2022-10-09T20:58:28.007Z,95646.94
2022-10-09T21:00:54.795Z,95648.34
2022-10-09T21:03:21.760Z,95655.38
2022-10-09T21:05:48.755Z,95639.28
2022-10-09T21:08:15.344Z,95647.97
2022-10-09T21:10:45.429Z,95646.25
2022-10-09T21:13:12.382Z,95653.38
2022-10-09T21:15:43.632Z,95647.91
2022-10-09T21:18:10.712Z,95646.72
2022-10-09T21:20:38.397Z,95634.59
2022-10-09T21:23:05.107Z,95643.84
2022-10-09T21:25:31.750Z,95639.38
2022-10-09T21:27:58.391Z,95638.31
2022-10-09T21:30:25.021Z,95637.56
2022-10-09T21:32:51.875Z,95637.19
2022-10-09T21:35:18.733Z,95639.25
2022-10-09T21:37:45.317Z,95636.03
2022-10-09T21:40:11.863Z,95642.97
2022-10-09T21:42:38.630Z,95642.91
2022-10-09T21:45:05.386Z,95642.69
2022-10-09T21:47:31.928Z,95642.63
2022-10-09T21:49:58.494Z,95601.81
2022-10-09T21:52:25.136Z,95638.03
2022-10-09T21:54:51.944Z,95632.25
2022-10-09T21:57:18.532Z,95641.53
2022-10-09T21:59:45.067Z,95645.09
2022-10-09T22:02:11.637Z,95639.53
2022-10-09T22:04:38.228Z,95638.75
2022-10-09T22:07:04.867Z,95636.75
2022-10-09T22:09:31.454Z,95639.53
2022-10-09T22:11:58.042Z,95643.19
2022-10-09T22:14:24.671Z,95643.63
2022-10-09T22:16:51.287Z,95640.81
2022-10-09T22:19:18.934Z,95634.59
2022-10-09T22:21:45.567Z,95640.41
2022-10-09T22:24:12.217Z,95635.97
2022-10-09T22:26:38.791Z,95640.41
2022-10-09T22:29:05.404Z,95644.03
2022-10-09T22:31:31.991Z,95649.25
2022-10-09T22:34:00.138Z,95649.63
2022-10-09T22:36:28.085Z,95646.91
2022-10-09T22:38:55.636Z,95653.09
2022-10-09T22:41:23.085Z,95658.09
2022-10-09T22:43:51.054Z,95651.22
2022-10-09T22:46:19.858Z,95653.69
2022-10-09T22:48:46.421Z,95653.94
2022-10-09T22:51:14.150Z,95657.34
2022-10-09T22:53:41.855Z,95669.75
2022-10-09T22:56:09.794Z,95672.53
2022-10-09T22:58:36.347Z,95671.38
2022-10-09T23:01:04.453Z,95672.56
2022-10-09T23:03:31.081Z,95680.75
2022-10-09T23:06:04.934Z,95684.94
2022-10-09T23:08:31.543Z,95692.16
2022-10-09T23:10:58.083Z,95694.53
2022-10-09T23:13:24.690Z,95695.34
2022-10-09T23:15:51.262Z,95698.56
2022-10-09T23:18:17.876Z,95703.75
2022-10-09T23:20:44.501Z,95703.97
2022-10-09T23:23:11.064Z,95706.16
2022-10-09T23:25:40.800Z,95705.75
2022-10-09T23:28:07.447Z,95706.13
2022-10-09T23:30:34.132Z,95708.13
2022-10-09T23:33:00.708Z,95707.34
2022-10-09T23:35:27.286Z,95705.34
2022-10-09T23:37:53.909Z,95703.34
2022-10-09T23:40:20.891Z,95698.94
2022-10-09T23:42:47.583Z,95700.72
2022-10-09T23:45:14.534Z,95702.53
2022-10-09T23:47:41.120Z,95697.75
2022-10-09T23:50:07.843Z,95700.16
2022-10-09T23:52:34.419Z,95700.94
2022-10-09T23:55:01.016Z,95700.13
2022-10-09T23:57:27.688Z,95699.53
2022-10-09T23:59:54.297Z,95699.34
